createdAt,value
2022-09-10T00:00:10.293Z,16.09
2022-09-10T00:02:39.316Z,16.08
2022-09-10T00:05:10.053Z,16.10
2022-09-10T00:07:38.810Z,16.04
2022-09-10T00:10:06.857Z,15.97
2022-09-10T00:12:35.945Z,15.98
2022-09-10T00:15:06.402Z,15.99
2022-09-10T00:17:36.898Z,15.96
2022-09-10T00:20:05.882Z,15.96
2022-09-10T00:22:34.426Z,15.90
2022-09-10T00:25:06.256Z,15.84
2022-09-10T00:27:37.203Z,15.81
2022-09-10T00:30:05.827Z,15.80
2022-09-10T00:32:35.521Z,15.74
2022-09-10T00:35:03.536Z,15.66
2022-09-10T00:37:31.521Z,15.64
2022-09-10T00:39:59.624Z,15.66
2022-09-10T00:42:27.723Z,15.66
2022-09-10T00:45:04.686Z,15.64
2022-09-10T00:47:36.708Z,15.61
2022-09-10T00:50:08.812Z,15.53
2022-09-10T00:52:39.911Z,15.53
2022-09-10T00:55:09.118Z,15.53
2022-09-10T00:57:37.060Z,15.52
2022-09-10T01:00:11.777Z,15.52
2022-09-10T01:02:41.293Z,15.47
2022-09-10T01:05:10.554Z,15.38
2022-09-10T01:07:39.209Z,15.37
2022-09-10T01:10:09.822Z,15.35
2022-09-10T01:12:54.792Z,15.32
2022-09-10T01:15:27.913Z,15.37
2022-09-10T01:18:09.377Z,15.34
2022-09-10T01:20:51.213Z,15.39
2022-09-10T01:23:50.912Z,15.44
2022-09-10T01:26:29.336Z,15.47
2022-09-10T01:29:02.410Z,15.42
2022-09-10T01:31:33.713Z,15.45
2022-09-10T01:34:05.793Z,15.40
2022-09-10T01:36:36.696Z,15.37
2022-09-10T01:39:04.642Z,15.35
2022-09-10T01:41:32.617Z,15.28
2022-09-10T01:44:10.380Z,15.27
2022-09-10T01:46:46.712Z,15.27
2022-09-10T01:49:23.410Z,15.29
2022-09-10T01:52:04.287Z,15.30
2022-09-10T01:54:40.983Z,15.36
2022-09-10T01:57:19.570Z,15.31
2022-09-10T01:59:54.413Z,15.29
2022-09-10T02:02:23.881Z,15.30
2022-09-10T02:04:52.954Z,15.29
2022-09-10T02:07:23.922Z,15.24
2022-09-10T02:09:52.566Z,15.25
2022-09-10T02:12:21.661Z,15.29
2022-09-10T02:14:51.300Z,15.29
2022-09-10T02:17:20.268Z,15.29
2022-09-10T02:19:49.158Z,15.30
2022-09-10T02:22:17.465Z,15.33
2022-09-10T02:24:45.506Z,15.34
2022-09-10T02:27:13.822Z,15.32
2022-09-10T02:29:42.321Z,15.26
2022-09-10T02:32:11.572Z,15.23
2022-09-10T02:34:41.083Z,15.23
2022-09-10T02:37:09.224Z,15.21
2022-09-10T02:39:37.200Z,15.19
2022-09-10T02:42:05.543Z,15.21
2022-09-10T02:44:33.411Z,15.23
2022-09-10T02:47:01.317Z,15.24
2022-09-10T02:49:31.734Z,15.26
2022-09-10T02:51:59.545Z,15.27
2022-09-10T02:54:27.362Z,15.25
2022-09-10T02:56:56.970Z,15.24
2022-09-10T02:59:25.101Z,15.17
2022-09-10T03:01:54.543Z,15.13
2022-09-10T03:04:22.349Z,15.10
2022-09-10T03:06:52.130Z,15.05
2022-09-10T03:09:20.297Z,15.04
2022-09-10T03:11:48.105Z,14.96
2022-09-10T03:14:20.265Z,14.97
2022-09-10T03:16:48.666Z,14.98
2022-09-10T03:19:17.491Z,14.95
2022-09-10T03:21:47.597Z,14.96
2022-09-10T03:24:17.167Z,14.97
2022-09-10T03:26:44.977Z,15.01
2022-09-10T03:29:13.361Z,15.04
2022-09-10T03:31:42.756Z,15.06
2022-09-10T03:34:12.585Z,15.08
2022-09-10T03:36:41.037Z,15.10
2022-09-10T03:39:08.924Z,15.05
2022-09-10T03:41:38.209Z,15.06
2022-09-10T03:44:06.455Z,15.05
2022-09-10T03:46:34.679Z,15.02
2022-09-10T03:49:02.679Z,15.05
2022-09-10T03:51:31.161Z,15.05
2022-09-10T03:54:00.387Z,15.04
2022-09-10T03:56:28.813Z,15.06
2022-09-10T03:58:58.182Z,15.08
2022-09-10T04:01:26.453Z,15.01
2022-09-10T04:03:56.945Z,15.00
2022-09-10T04:06:25.063Z,14.95
2022-09-10T04:08:54.039Z,14.99
2022-09-10T04:11:24.093Z,15.00
2022-09-10T04:13:52.903Z,14.98
2022-09-10T04:16:23.473Z,14.99
2022-09-10T04:18:51.671Z,14.97
2022-09-10T04:21:20.321Z,14.98
2022-09-10T04:23:48.109Z,15.01
2022-09-10T04:26:17.635Z,15.06
2022-09-10T04:28:45.877Z,15.04
2022-09-10T04:31:13.838Z,15.05
2022-09-10T04:33:43.069Z,15.04
2022-09-10T04:36:11.204Z,15.01
2022-09-10T04:38:40.632Z,15.03
2022-09-10T04:41:09.499Z,15.03
2022-09-10T04:43:38.052Z,15.05
2022-09-10T04:46:06.302Z,15.08
2022-09-10T04:48:34.445Z,15.10
2022-09-10T04:51:16.208Z,15.10
2022-09-10T04:53:45.392Z,15.16
2022-09-10T04:56:13.622Z,15.14
2022-09-10T04:58:42.476Z,15.16
2022-09-10T05:01:10.862Z,15.16
2022-09-10T05:03:39.157Z,15.18
2022-09-10T05:06:08.728Z,15.17
2022-09-10T05:08:36.949Z,15.18
2022-09-10T05:11:05.342Z,15.16
2022-09-10T05:13:33.665Z,15.18
2022-09-10T05:16:01.701Z,15.19
2022-09-10T05:18:30.133Z,15.24
2022-09-10T05:20:58.191Z,15.19
2022-09-10T05:23:27.469Z,15.23
2022-09-10T05:25:56.868Z,15.25
2022-09-10T05:28:24.882Z,15.19
2022-09-10T05:30:52.731Z,15.20
2022-09-10T05:33:20.569Z,15.15
2022-09-10T05:35:51.929Z,15.21
2022-09-10T05:38:20.281Z,15.22
2022-09-10T05:40:50.437Z,15.17
2022-09-10T05:43:18.332Z,15.13
2022-09-10T05:45:47.200Z,15.12
2022-09-10T05:48:15.091Z,15.10
2022-09-10T05:50:45.509Z,15.10
2022-09-10T05:53:13.731Z,15.11
2022-09-10T05:55:41.546Z,15.12
2022-09-10T05:58:10.899Z,15.10
2022-09-10T06:00:38.880Z,15.13
2022-09-10T06:03:07.938Z,15.22
2022-09-10T06:05:35.961Z,15.24
2022-09-10T06:08:08.503Z,15.27
2022-09-10T06:10:37.041Z,15.29
2022-09-10T06:13:05.078Z,15.30
2022-09-10T06:15:35.739Z,15.30
2022-09-10T06:49:24.790Z,15.40
2022-09-10T06:51:53.460Z,15.43
2022-09-10T06:54:21.600Z,15.50
2022-09-10T06:56:50.064Z,15.55
2022-09-10T06:59:18.434Z,15.55
2022-09-10T07:01:47.464Z,15.59
2022-09-10T07:04:15.588Z,15.63
2022-09-10T07:06:47.782Z,15.65
2022-09-10T07:09:18.911Z,15.68
2022-09-10T07:11:46.955Z,15.83
2022-09-10T07:14:15.264Z,15.83
2022-09-10T07:16:45.700Z,15.90
2022-09-10T07:19:15.185Z,15.94
2022-09-10T07:21:44.949Z,15.96
2022-09-10T07:24:16.094Z,16.00
2022-09-10T07:26:46.667Z,15.99
2022-09-10T07:29:14.765Z,16.03
2022-09-10T07:31:45.686Z,16.10
2022-09-10T07:34:16.477Z,16.20
2022-09-10T07:36:45.906Z,16.28
2022-09-10T07:39:13.887Z,16.34
2022-09-10T07:41:41.884Z,16.38
2022-09-10T07:44:09.745Z,16.38
2022-09-10T07:46:38.033Z,16.40
2022-09-10T07:49:05.835Z,16.39
2022-09-10T07:51:35.355Z,16.44
2022-09-10T07:54:05.330Z,16.43
2022-09-10T07:56:34.339Z,16.35
2022-09-10T07:59:02.755Z,16.31
2022-09-10T08:01:31.847Z,16.36
2022-09-10T08:04:00.086Z,16.30
2022-09-10T08:06:28.048Z,16.37
2022-09-10T08:08:56.204Z,16.45
2022-09-10T08:11:25.896Z,16.42
2022-09-10T08:13:56.824Z,16.43
2022-09-10T08:16:26.867Z,16.44
2022-09-10T08:18:57.283Z,16.47
2022-09-10T08:21:25.911Z,16.48
2022-09-10T08:23:55.317Z,16.42
2022-09-10T08:26:25.556Z,16.42
2022-09-10T08:28:54.040Z,16.42
2022-09-10T08:31:22.189Z,16.51
2022-09-10T08:33:51.269Z,16.57
2022-09-10T08:36:21.785Z,16.60
2022-09-10T08:38:50.479Z,16.66
2022-09-10T08:41:32.523Z,16.77
2022-09-10T08:44:48.593Z,17.01
2022-09-10T08:47:07.370Z,17.15
2022-09-10T08:49:38.198Z,17.33
2022-09-10T08:52:13.400Z,17.42
2022-09-10T08:54:43.905Z,17.46
2022-09-10T08:57:17.541Z,17.47
2022-09-10T08:59:46.601Z,17.52
2022-09-10T09:02:38.121Z,17.49
2022-09-10T09:05:14.297Z,17.48
2022-09-10T09:07:42.693Z,17.44
2022-09-10T09:10:23.992Z,17.44
2022-09-10T09:13:17.244Z,17.38
2022-09-10T09:15:51.758Z,17.39
2022-09-10T09:18:30.296Z,17.42
2022-09-10T09:21:00.714Z,17.55
2022-09-10T09:23:34.043Z,17.66
2022-09-10T09:26:05.140Z,17.75
2022-09-10T09:28:39.588Z,17.72
2022-09-10T09:31:17.953Z,17.68
2022-09-10T09:33:46.754Z,17.77
2022-09-10T09:36:18.072Z,17.77
2022-09-10T09:38:50.915Z,17.81
2022-09-10T09:41:23.036Z,17.86
2022-09-10T09:43:56.103Z,18.06
2022-09-10T09:46:25.731Z,18.18
2022-09-10T09:48:59.507Z,18.27
2022-09-10T09:51:30.697Z,18.18
2022-09-10T09:54:39.256Z,18.15
2022-09-10T09:56:59.139Z,17.99
2022-09-10T09:59:30.420Z,17.91
2022-09-10T10:02:01.012Z,17.82
2022-09-10T10:04:31.056Z,17.79
2022-09-10T10:07:00.866Z,17.62
2022-09-10T10:09:30.246Z,17.45
2022-09-10T10:11:59.423Z,17.39
2022-09-10T10:14:41.635Z,17.38
2022-09-10T10:17:43.561Z,17.36
2022-09-10T10:20:14.071Z,17.44
2022-09-10T10:22:43.473Z,17.26
2022-09-10T10:25:38.395Z,17.11
2022-09-10T10:28:15.843Z,17.11
2022-09-10T10:30:45.412Z,17.10
2022-09-10T10:33:19.315Z,17.14
2022-09-10T10:35:49.393Z,17.09
2022-09-10T10:38:31.730Z,17.08
2022-09-10T10:41:32.215Z,16.91
2022-09-10T10:44:24.126Z,16.66
2022-09-10T10:47:05.811Z,16.48
2022-09-10T10:49:47.649Z,16.48
2022-09-10T10:52:19.957Z,16.68
2022-09-10T10:54:59.799Z,16.67
2022-09-10T10:57:32.417Z,16.70
2022-09-10T11:00:03.996Z,16.64
2022-09-10T11:02:50.619Z,16.68
2022-09-10T11:05:21.961Z,16.67
2022-09-10T11:07:50.319Z,16.75
2022-09-10T11:10:23.474Z,16.83
2022-09-10T11:12:55.844Z,16.97
2022-09-10T11:15:30.360Z,17.08
2022-09-10T11:18:04.944Z,17.17
2022-09-10T11:20:34.871Z,17.27
2022-09-10T11:23:09.486Z,17.48
2022-09-10T11:25:40.737Z,17.72
2022-09-10T11:28:13.407Z,18.20
2022-09-10T11:30:42.758Z,18.35
2022-09-10T11:33:16.795Z,18.54
2022-09-10T11:35:47.125Z,18.70
2022-09-10T11:38:23.181Z,18.80
2022-09-10T11:40:56.358Z,18.88
2022-09-10T11:43:29.834Z,18.89
2022-09-10T11:45:59.650Z,19.01
2022-09-10T11:48:32.651Z,19.14
2022-09-10T11:51:03.526Z,19.35
2022-09-10T11:53:31.790Z,19.60
2022-09-10T11:56:13.944Z,19.86
2022-09-10T11:58:49.076Z,20.02
2022-09-10T12:01:25.921Z,19.99
2022-09-10T12:04:23.304Z,19.99
2022-09-10T12:07:03.407Z,19.91
2022-09-10T12:09:37.787Z,19.88
2022-09-10T12:12:10.829Z,19.86
2022-09-10T12:14:40.580Z,19.78
2022-09-10T12:17:14.324Z,19.62
2022-09-10T12:19:47.070Z,19.54
2022-09-10T12:22:21.161Z,19.49
2022-09-10T12:24:54.703Z,19.38
2022-09-10T12:27:23.095Z,19.30
2022-09-10T12:29:51.131Z,19.23
2022-09-10T12:32:36.844Z,19.40
2022-09-10T12:35:47.025Z,19.66
2022-09-10T12:38:51.920Z,19.92
2022-09-10T12:41:57.953Z,20.19
2022-09-10T12:44:34.444Z,20.18
2022-09-10T12:47:53.937Z,20.24
2022-09-10T12:50:35.102Z,20.33
2022-09-10T12:53:34.413Z,20.30
2022-09-10T12:56:16.267Z,20.13
2022-09-10T12:58:55.846Z,20.00
2022-09-10T13:01:36.813Z,19.87
2022-09-10T13:04:04.881Z,19.77
2022-09-10T13:06:38.290Z,19.80
2022-09-10T13:09:18.048Z,19.96
2022-09-10T13:11:49.557Z,20.01
2022-09-10T13:14:20.850Z,19.99
2022-09-10T13:16:48.988Z,20.06
2022-09-10T13:19:48.877Z,20.07
2022-09-10T13:23:04.245Z,20.14
2022-09-10T13:25:36.693Z,20.15
2022-09-10T13:28:45.100Z,20.18
2022-09-10T13:31:18.412Z,20.16
2022-09-10T13:34:09.402Z,20.10
2022-09-10T13:36:42.426Z,20.13
2022-09-10T13:39:28.932Z,20.12
2022-09-10T13:42:18.696Z,20.11
2022-09-10T13:44:59.811Z,20.13
2022-09-10T13:47:37.633Z,20.24
2022-09-10T13:50:13.340Z,20.27
2022-09-10T13:52:45.229Z,20.42
2022-09-10T13:55:19.819Z,20.41
2022-09-10T13:57:49.760Z,20.47
2022-09-10T14:00:23.786Z,20.46
2022-09-10T14:02:54.964Z,20.54
2022-09-10T14:05:25.987Z,20.56
2022-09-10T14:07:55.023Z,20.51
2022-09-10T14:10:23.104Z,20.42
2022-09-10T14:12:51.871Z,20.31
2022-09-10T14:15:25.331Z,20.22
2022-09-10T14:17:58.577Z,20.08
2022-09-10T14:20:27.877Z,20.07
2022-09-10T14:23:00.207Z,20.04
2022-09-10T14:25:33.480Z,19.90
2022-09-10T14:28:28.601Z,19.65
2022-09-10T14:31:20.550Z,19.51
2022-09-10T14:33:50.142Z,19.41
2022-09-10T14:36:19.699Z,19.31
2022-09-10T14:38:55.734Z,19.18
2022-09-10T14:41:25.985Z,19.06
2022-09-10T14:44:15.751Z,18.90
2022-09-10T14:46:50.237Z,18.93
2022-09-10T14:49:20.384Z,18.93
2022-09-10T14:51:48.498Z,18.86
2022-09-10T14:54:16.357Z,18.80
2022-09-10T14:56:46.409Z,18.74
2022-09-10T14:59:16.909Z,18.68
2022-09-10T15:01:48.288Z,18.60
2022-09-10T15:04:17.500Z,18.59
2022-09-10T15:06:46.801Z,18.48
2022-09-10T15:09:15.028Z,18.34
2022-09-10T15:11:50.984Z,18.29
2022-09-10T15:14:20.077Z,18.31
2022-09-10T15:16:51.759Z,18.35
2022-09-10T15:19:19.832Z,18.37
2022-09-10T15:21:49.528Z,18.42
2022-09-10T15:24:18.825Z,18.33
2022-09-10T15:26:47.002Z,18.29
2022-09-10T15:29:15.828Z,18.25
2022-09-10T15:31:44.748Z,18.22
2022-09-10T15:34:13.008Z,18.17
2022-09-10T15:36:42.015Z,18.15
2022-09-10T15:39:13.273Z,18.08
2022-09-10T15:41:44.734Z,18.10
2022-09-10T15:44:13.190Z,18.14
2022-09-10T15:46:42.534Z,18.09
2022-09-10T15:49:12.618Z,17.96
2022-09-10T15:51:41.409Z,17.87
2022-09-10T15:54:12.175Z,17.91
2022-09-10T15:56:40.799Z,17.70
2022-09-10T15:59:10.321Z,17.55
2022-09-10T16:01:39.027Z,17.41
2022-09-10T16:04:07.380Z,17.19
2022-09-10T16:06:37.745Z,17.14
2022-09-10T16:09:09.224Z,17.00
2022-09-10T16:11:40.068Z,16.88
2022-09-10T16:14:09.862Z,16.84
2022-09-10T16:16:37.719Z,16.90
2022-09-10T16:19:05.787Z,16.87
2022-09-10T16:21:36.261Z,16.81
2022-09-10T16:24:05.260Z,16.75
2022-09-10T16:26:34.576Z,16.74
2022-09-10T16:29:06.389Z,16.74
2022-09-10T16:31:36.363Z,16.74
2022-09-10T16:34:05.913Z,16.76
2022-09-10T16:36:34.673Z,16.82
2022-09-10T16:39:02.961Z,16.79
2022-09-10T16:41:31.832Z,16.86
2022-09-10T16:44:00.549Z,16.80
2022-09-10T16:46:30.333Z,16.86
2022-09-10T16:48:59.505Z,16.85
2022-09-10T16:51:29.136Z,16.81
2022-09-10T16:54:02.482Z,16.79
2022-09-10T16:56:33.605Z,16.85
2022-09-10T16:59:01.625Z,16.81
2022-09-10T17:01:31.266Z,16.85
2022-09-10T17:03:59.330Z,16.82
2022-09-10T17:06:29.292Z,16.81
2022-09-10T17:08:58.771Z,16.83
2022-09-10T17:11:27.706Z,16.83
2022-09-10T17:13:56.936Z,16.86
2022-09-10T17:16:26.377Z,16.87
2022-09-10T17:18:59.961Z,16.87
2022-09-10T17:21:29.073Z,16.86
2022-09-10T17:23:57.604Z,16.79
2022-09-10T17:26:27.040Z,16.74
2022-09-10T17:28:56.065Z,16.70
2022-09-10T17:31:24.573Z,16.68
2022-09-10T17:33:52.777Z,16.65
2022-09-10T17:36:22.216Z,16.66
2022-09-10T17:38:50.513Z,16.66
2022-09-10T17:41:18.331Z,16.64
2022-09-10T17:43:47.204Z,16.63
2022-09-10T17:46:17.776Z,16.63
2022-09-10T17:48:45.805Z,16.64
2022-09-10T17:51:15.326Z,16.62
2022-09-10T17:53:44.938Z,16.60
2022-09-10T17:56:14.666Z,16.56
2022-09-10T17:58:43.117Z,16.57
2022-09-10T18:01:13.895Z,16.54
2022-09-10T18:03:42.838Z,16.53
2022-09-10T18:06:11.921Z,16.51
2022-09-10T18:08:41.662Z,16.49
2022-09-10T18:11:13.142Z,16.51
2022-09-10T18:13:41.277Z,16.50
2022-09-10T18:16:12.429Z,16.50
2022-09-10T18:18:40.445Z,16.53
2022-09-10T18:21:13.021Z,16.54
2022-09-10T18:23:41.667Z,16.57
2022-09-10T18:26:17.964Z,16.58
2022-09-10T18:28:46.661Z,16.57
2022-09-10T18:31:14.663Z,16.57
2022-09-10T18:33:42.565Z,16.61
2022-09-10T18:36:15.092Z,16.59
2022-09-10T18:38:43.706Z,16.60
2022-09-10T18:41:20.880Z,16.59
2022-09-10T18:43:49.465Z,16.56
2022-09-10T18:46:17.834Z,16.56
2022-09-10T18:48:46.700Z,16.58
2022-09-10T18:51:15.859Z,16.55
2022-09-10T18:53:45.298Z,16.52
2022-09-10T18:56:15.506Z,16.49
2022-09-10T18:58:49.516Z,16.50
2022-09-10T19:01:17.776Z,16.53
2022-09-10T19:03:49.999Z,16.43
2022-09-10T19:06:23.059Z,16.40
2022-09-10T19:08:53.219Z,16.39
2022-09-10T19:11:24.464Z,16.37
2022-09-10T19:13:55.033Z,16.36
2022-09-10T19:16:25.007Z,16.32
2022-09-10T19:18:53.566Z,16.29
2022-09-10T19:21:22.303Z,16.29
2022-09-10T19:23:53.416Z,16.26
2022-09-10T19:26:25.885Z,16.27
2022-09-10T19:28:57.371Z,16.27
2022-09-10T19:31:26.155Z,16.23
2022-09-10T19:33:56.550Z,16.23
2022-09-10T19:36:27.462Z,16.20
2022-09-10T19:38:55.710Z,16.15
2022-09-10T19:41:25.560Z,16.09
2022-09-10T19:43:57.484Z,16.13
2022-09-10T19:46:28.406Z,16.11
2022-09-10T19:48:58.353Z,16.12
2022-09-10T19:51:30.021Z,16.12
2022-09-10T19:53:58.225Z,16.13
2022-09-10T19:56:28.149Z,16.09
2022-09-10T19:58:57.916Z,16.07
2022-09-10T20:01:27.427Z,16.11
2022-09-10T20:03:59.263Z,16.09
2022-09-10T20:06:27.249Z,16.12
2022-09-10T20:08:55.636Z,16.07
2022-09-10T20:11:24.949Z,16.06
2022-09-10T20:13:56.040Z,16.05
2022-09-10T20:16:26.199Z,16.04
2022-09-10T20:18:54.241Z,16.01
2022-09-10T20:21:24.832Z,16.04
2022-09-10T20:23:55.648Z,16.08
2022-09-10T20:26:25.642Z,16.14
2022-09-10T20:28:54.669Z,16.05
2022-09-10T20:31:23.514Z,16.05
2022-09-10T20:33:55.513Z,16.04
2022-09-10T20:36:24.541Z,16.02
2022-09-10T20:38:53.272Z,16.01
2022-09-10T20:41:21.368Z,16.03
2022-09-10T20:43:51.724Z,16.01
2022-09-10T20:46:22.135Z,15.99
2022-09-10T20:48:52.490Z,15.98
2022-09-10T20:51:21.025Z,15.98
2022-09-10T20:53:49.718Z,16.01
2022-09-10T20:56:19.400Z,16.01
2022-09-10T20:58:47.946Z,16.00
2022-09-10T21:01:18.952Z,16.06
2022-09-10T21:03:48.167Z,16.02
2022-09-10T21:06:19.704Z,16.02
2022-09-10T21:08:49.296Z,16.03
2022-09-10T21:11:18.787Z,16.01
2022-09-10T21:13:49.773Z,16.01
2022-09-10T21:16:18.944Z,16.04
2022-09-10T21:18:52.209Z,16.00
2022-09-10T21:21:25.710Z,16.04
2022-09-10T21:23:55.065Z,15.99
2022-09-10T21:26:25.161Z,15.99
2022-09-10T21:28:53.852Z,16.02
2022-09-10T21:31:21.696Z,16.02
2022-09-10T21:33:50.110Z,15.98
2022-09-10T21:36:20.016Z,16.04
2022-09-10T21:38:50.127Z,16.09
2022-09-10T21:41:21.442Z,16.08
2022-09-10T21:43:49.314Z,16.04
2022-09-10T21:46:17.150Z,16.09
2022-09-10T21:48:45.125Z,16.05
2022-09-10T21:51:14.491Z,16.02
2022-09-10T21:53:43.294Z,16.01
2022-09-10T21:56:13.581Z,16.00
2022-09-10T21:58:41.960Z,15.99
2022-09-10T22:01:11.205Z,15.95
2022-09-10T22:03:48.168Z,15.96
2022-09-10T22:06:18.721Z,15.91
2022-09-10T22:08:48.188Z,15.94
2022-09-10T22:11:21.548Z,15.91
2022-09-10T22:13:52.928Z,15.89
2022-09-10T22:16:21.638Z,15.88
2022-09-10T22:18:49.886Z,15.82
2022-09-10T22:21:18.621Z,15.85
2022-09-10T22:23:46.452Z,16.00
2022-09-10T22:26:18.036Z,15.89
2022-09-10T22:28:46.280Z,15.90
2022-09-10T22:31:16.397Z,15.86
2022-09-10T22:33:45.692Z,15.89
2022-09-10T22:36:15.229Z,15.88
2022-09-10T22:38:44.156Z,15.92
2022-09-10T22:41:14.488Z,15.91
2022-09-10T22:43:44.025Z,15.84
2022-09-10T22:46:12.759Z,15.85
2022-09-10T22:48:43.876Z,15.87
2022-09-10T22:51:14.577Z,15.83
2022-09-10T22:53:44.835Z,15.81
2022-09-10T22:56:14.371Z,15.84
2022-09-10T22:58:44.493Z,15.79
2022-09-10T23:01:14.637Z,15.81
2022-09-10T23:03:44.398Z,15.75
2022-09-10T23:06:14.864Z,15.74
2022-09-10T23:08:44.280Z,15.68
2022-09-10T23:11:15.297Z,15.62
2022-09-10T23:13:45.165Z,15.54
2022-09-10T23:16:14.702Z,15.55
2022-09-10T23:18:43.405Z,15.57
2022-09-10T23:21:11.944Z,15.52
2022-09-10T23:23:39.784Z,15.54
2022-09-10T23:26:09.383Z,15.55
2022-09-10T23:28:37.831Z,15.54
2022-09-10T23:31:13.493Z,15.49
2022-09-10T23:33:42.581Z,15.50
2022-09-10T23:36:13.574Z,15.50
2022-09-10T23:38:44.386Z,15.48
2022-09-10T23:41:16.222Z,15.43
2022-09-10T23:43:46.520Z,15.43
2022-09-10T23:46:17.247Z,15.42
2022-09-10T23:48:46.801Z,15.46
2022-09-10T23:51:19.415Z,15.44
2022-09-10T23:53:49.271Z,15.43
2022-09-10T23:56:19.762Z,15.40
2022-09-10T23:58:48.956Z,15.41
